Terminal Aerodrome Forecast
Issued by NWS

Home | Current Version | Previous Version | Text Only | Print | Product List | Glossary On
Versions: 1 2 3 4 5 6 7 8 9 10 11 12 13 14
000
FTUS43 KFGF 241733
TAFDVL
TAF
KDVL 241733Z 2418/2518 32020G28KT P6SM OVC015
      TEMPO 2418/2420 4SM -SHRA OVC007
     FM242000 33020G28KT P6SM VCSH OVC025
     FM250000 34016G24KT P6SM BKN060
     FM250200 33012KT P6SM BKN070
     FM250300 33009KT P6SM SCT080
     FM250800 30006KT P6SM FEW250=

USA.gov is the U.S. government's official web portal to all federal, state and local government web resources and services.